Saint-Prosper-De-Dorchester, Canada
Current Conditions -  °F | °C
As of 7:00 PM on Wednesday 22 Oct 2014 (Local Time) from CYQB Reporting Station
Few Clouds Few Clouds  
Wind Chill: 37°   Ceiling: Unl
Heat Index: 45°   Visibility: 15mi
Dew Point: 34°   Wind: 17mph
Humidity: 66%   Direction: 60°ENE
Pressure: 30.34"   Gusts: NA
Location:  46.2°N, 70.48°W
Report Text: CYQB 222300Z 06015KT 15SM FEW100 FEW230 07/01 A3034 RMK AC1CI1 SLP277
Loading
Personal Weather Stations






























Interactive Weather Map New forecast layout! Learn more

10-Day Weather Forecast

Advertisements
Track Severe Weather on mobile